Terminal Aerodrome Forecast
Issued by NWS

Current Version | Previous Version | Graphics & Text | Print | Product List | Glossary Off
Versions: 1 2 3 4 5 6 7 8 9 10 11 12 13 14 15 16 17 18 19 20 21 22 23 24 25 26 27 28 29 30 31 32 33 34 35 36 37

000
FTUS41 KRNK 020207 AAA
TAFLWB
TAF AMD
KLWB 020207Z 0202/0224 22003KT P6SM SCT025 OVC080
     FM020400 00000KT 3SM BR SCT004 OVC015
     FM020900 00000KT 1/2SM FG OVC005
     FM021500 00000KT 6SM HZ OVC025=

USA.gov is the U.S. government's official web portal to all federal, state and local government web resources and services.